This is the latest recevied weather packets stored in our database for station/object SV9TNF-1. If no packets are shown the sender has not sent any weather packets the latest 10 day(s).
| Time | Temp. | Humidity | Pressure | Rain* | Wind** | Luminosity | Snow |
|---|---|---|---|---|---|---|---|
| 1777544990 | 28.33° C | 33% | 1003.7 hPa | 0 mm | 1.34 m/s, 144° | - | - |
| 1777544690 | 27.78° C | 36% | 1003.7 hPa | 0 mm | 1.79 m/s, 134° | - | - |
| 1777544390 | 26.67° C | 36% | 1003.7 hPa | 0 mm | 6.26 m/s, 20° | - | - |
| 1777544090 | 27.78° C | 34% | 1003.7 hPa | 0 mm | 2.24 m/s, 145° | - | - |
| 1777543790 | 26.67° C | 35% | 1003.7 hPa | 0 mm | 0.89 m/s, 129° | - | - |
| 1777543490 | 27.78° C | 35% | 1003.7 hPa | 0 mm | 0.89 m/s, 154° | - | - |
| 1777543190 | 26.67° C | 33% | 1003.7 hPa | 0 mm | 2.24 m/s, 132° | - | - |
| 1777542890 | 26.67° C | 31% | 1003.7 hPa | 0 mm | 3.13 m/s, 157° | - | - |
| 1777542590 | 26.67° C | 31% | 1003.7 hPa | 0 mm | 4.92 m/s, 319° | - | - |
| 1777542290 | 28.89° C | 29% | 1003.7 hPa | 0 mm | 1.79 m/s, 63° | - | - |
| 1777541989 | 28.33° C | 29% | 1003.7 hPa | 0 mm | 1.34 m/s, 130° | - | - |
| 1777541689 | 28.33° C | 28% | 1003.7 hPa | 0 mm | 3.13 m/s, 46° | - | - |
| 1777541389 | 28.33° C | 29% | 1003.7 hPa | 0 mm | 1.34 m/s, 128° | - | - |
| 1777541089 | 28.33° C | 29% | 1003.7 hPa | 0 mm | 1.79 m/s, 120° | - | - |
| 1777540789 | 26.67° C | 29% | 1003.7 hPa | 0 mm | 8.05 m/s, 345° | - | - |
| 1777540489 | 27.78° C | 30% | 1003.7 hPa | 0 mm | 2.68 m/s, 131° | - | - |
| 1777540189 | 27.78° C | 27% | 1003.7 hPa | 0 mm | 2.68 m/s, 337° | - | - |
| 1777539889 | 28.33° C | 30% | 1003.7 hPa | 0 mm | 1.79 m/s, 121° | - | - |
| 1777539588 | 27.22° C | 29% | 1003.7 hPa | 0 mm | 2.68 m/s, 128° | - | - |
| 1777539289 | 26.67° C | 29% | 1003.7 hPa | 0 mm | 8.05 m/s, 339° | - | - |
| 1777538988 | 27.78° C | 29% | 1003.7 hPa | 0 mm | 1.79 m/s, 130° | - | - |
| 1777538688 | 28.33° C | 28% | 1004.1 hPa | 0 mm | 3.13 m/s, 325° | - | - |
| 1777538388 | 27.78° C | 30% | 1004.1 hPa | 0 mm | 0.89 m/s, 126° | - | - |
| 1777538088 | 27.22° C | 30% | 1003.7 hPa | 0 mm | 3.13 m/s, 86° | - | - |
| 1777537788 | 26.67° C | 31% | 1003.7 hPa | 0 mm | 1.34 m/s, 7° | - | - |
* Rain latest hour (hover to see other rain measurements)
** Current wind speed in m/s (hover to see current wind gust speed)